Time;durP1;ratioP1;P1;durP2;ratioP2;P2;SDS_P1;SDS_P2;PMS_P1;PMS_P2;Temp;Humidity;BMP_temperature;BMP_pressure;BME280_temperature;BME280_humidity;BME280_pressure;Samples;Min_cycle;Max_cycle;Signal;HPM_P1;HPM_P2
2021/11/07 00:02:20;;;;;;;18.20;12.00;;;5.70;99.90;;;;;;5072916;28;20029;-89
2021/11/07 00:04:49;;;;;;;21.50;12.32;;;5.70;99.90;;;;;;5074751;28;20050;-89
2021/11/07 00:12:15;;;;;;;21.23;13.85;;;5.60;99.90;;;;;;5078455;28;20032;-89
2021/11/07 00:14:49;;;;;;;23.45;12.68;;;5.60;99.90;;;;;;5078167;28;20028;-89
2021/11/07 00:17:17;;;;;;;20.13;12.68;;;5.60;99.90;;;;;;5076848;28;20024;-89
2021/11/07 00:19:49;;;;;;;19.92;12.27;;;5.60;99.90;;;;;;5076819;28;20119;-89
2021/11/07 00:22:20;;;;;;;19.42;12.90;;;5.60;99.90;;;;;;5076571;28;20024;-89
2021/11/07 00:27:23;;;;;;;21.88;12.88;;;5.70;99.90;;;;;;5056789;28;20033;-89
2021/11/07 00:30:06;;;;;;;20.15;12.63;;;5.60;99.90;;;;;;5056666;28;20021;-89
2021/11/07 00:37:51;;;;;;;22.25;13.52;;;5.70;99.90;;;;;;5057946;28;20037;-89
2021/11/07 00:43:04;;;;;;;19.75;12.73;;;5.50;99.90;;;;;;5057068;28;20064;-89
2021/11/07 00:48:45;;;;;;;19.90;12.50;;;5.50;99.90;;;;;;5024465;28;20026;-89
2021/11/07 01:01:33;;;;;;;21.63;13.55;;;5.40;99.90;;;;;;5076960;28;20162;-89
2021/11/07 01:04:02;;;;;;;20.58;12.93;;;5.40;99.90;;;;;;5076921;28;20020;-89
2021/11/07 01:06:45;;;;;;;23.15;13.52;;;5.40;99.90;;;;;;5075447;28;20025;-89
2021/11/07 01:09:12;;;;;;;21.05;12.38;;;5.40;99.90;;;;;;5075752;28;20482;-88
2021/11/07 01:11:38;;;;;;;22.40;12.60;;;5.50;99.90;;;;;;5075454;28;20128;-89
2021/11/07 01:14:07;;;;;;;17.35;10.93;;;5.50;99.90;;;;;;5074726;28;20056;-89
2021/11/07 01:16:33;;;;;;;18.38;12.00;;;5.50;99.90;;;;;;5075453;28;20490;-89
2021/11/07 01:18:59;;;;;;;23.52;12.02;;;5.50;99.90;;;;;;5075676;28;20033;-89
2021/11/07 01:21:27;;;;;;;18.40;12.32;;;5.50;99.90;;;;;;5075547;28;20078;-89
2021/11/07 01:24:05;;;;;;;21.52;11.63;;;5.50;99.90;;;;;;5075418;28;20103;-89
2021/11/07 01:29:30;;;;;;;17.55;11.63;;;5.50;99.90;;;;;;5076390;28;20070;-89
2021/11/07 01:31:51;;;;;;;18.58;11.43;;;5.50;99.90;;;;;;5074034;28;20029;-89
2021/11/07 01:35:22;;;;;;;17.45;11.30;;;5.50;99.90;;;;;;5076145;28;20025;-89
2021/11/07 01:37:30;;;;;;;20.80;12.57;;;5.50;99.90;;;;;;5073377;28;20119;-89
2021/11/07 01:40:15;;;;;;;19.60;11.75;;;5.50;99.90;;;;;;5072814;28;20040;-89
2021/11/07 01:42:52;;;;;;;20.70;11.93;;;5.40;99.90;;;;;;5074872;28;20059;-89
2021/11/07 01:45:34;;;;;;;21.73;12.45;;;5.40;99.90;;;;;;5076145;28;20471;-89
2021/11/07 01:48:07;;;;;;;19.60;12.13;;;5.30;99.90;;;;;;5071090;28;20028;-89
2021/11/07 01:50:38;;;;;;;23.63;13.40;;;5.10;99.90;;;;;;5074861;28;20028;-89
2021/11/07 01:53:31;;;;;;;20.17;12.05;;;5.10;99.90;;;;;;5075516;28;20051;-89
2021/11/07 01:56:01;;;;;;;18.00;12.15;;;5.00;99.90;;;;;;5074794;28;20036;-89
2021/11/07 01:58:27;;;;;;;20.15;13.43;;;4.90;99.90;;;;;;5074201;28;20063;-89
2021/11/07 02:00:54;;;;;;;16.73;11.32;;;4.90;99.90;;;;;;5074242;28;20032;-89
2021/11/07 02:03:21;;;;;;;21.05;12.45;;;5.00;99.90;;;;;;5075575;28;20071;-89
2021/11/07 02:05:48;;;;;;;19.70;11.77;;;4.90;99.90;;;;;;5075423;28;20077;-90
2021/11/07 02:08:17;;;;;;;19.65;12.85;;;4.90;99.90;;;;;;5075652;28;20021;-89
2021/11/07 02:10:42;;;;;;;20.05;11.95;;;4.90;99.90;;;;;;5074361;28;20021;-87
2021/11/07 02:13:08;;;;;;;20.95;11.85;;;4.80;99.90;;;;;;5074106;28;20024;-89
2021/11/07 02:15:35;;;;;;;16.92;11.63;;;4.80;99.90;;;;;;5074252;28;20025;-89
2021/11/07 02:18:02;;;;;;;19.27;12.77;;;4.80;99.90;;;;;;5073764;28;20052;-89
2021/11/07 02:20:31;;;;;;;17.48;11.95;;;4.80;99.90;;;;;;5074090;28;20463;-89
2021/11/07 02:22:59;;;;;;;15.57;11.35;;;4.90;99.90;;;;;;5073954;28;20031;-89
2021/11/07 02:25:25;;;;;;;16.75;11.05;;;4.90;99.90;;;;;;5073804;28;20021;-89
2021/11/07 02:27:51;;;;;;;20.48;11.52;;;5.00;99.90;;;;;;5073300;28;20516;-89
2021/11/07 02:30:18;;;;;;;17.95;11.13;;;5.10;99.90;;;;;;5073910;28;20107;-89
2021/11/07 02:32:46;;;;;;;18.13;11.68;;;5.20;99.90;;;;;;5073781;28;20121;-89
2021/11/07 02:35:12;;;;;;;17.58;10.68;;;5.20;99.90;;;;;;5073956;28;20028;-89
2021/11/07 02:37:39;;;;;;;20.65;11.85;;;5.30;99.90;;;;;;5074044;28;20026;-89
2021/11/07 02:40:07;;;;;;;18.63;11.63;;;5.20;99.90;;;;;;5054002;28;20036;-90
2021/11/07 02:42:34;;;;;;;20.33;11.63;;;5.30;99.90;;;;;;5054422;28;20052;-90
2021/11/07 02:45:00;;;;;;;20.30;12.70;;;5.30;99.90;;;;;;5054587;28;20067;-90
2021/11/07 02:47:27;;;;;;;21.02;12.30;;;5.20;99.90;;;;;;5053683;28;20442;-89
2021/11/07 02:49:53;;;;;;;18.38;11.77;;;5.20;99.90;;;;;;5070137;28;20108;-89
2021/11/07 02:52:18;;;;;;;18.58;12.27;;;5.20;99.90;;;;;;5053577;28;20094;-90
2021/11/07 02:54:44;;;;;;;18.70;12.35;;;5.20;99.90;;;;;;5053446;28;20029;-90
2021/11/07 02:57:17;;;;;;;24.00;14.10;;;5.20;99.90;;;;;;5053587;28;20032;-90
2021/11/07 02:59:43;;;;;;;29.40;15.98;;;5.20;99.90;;;;;;5072736;28;20062;-89
2021/11/07 03:02:12;;;;;;;35.80;19.55;;;5.20;99.90;;;;;;5073574;28;20025;-89
2021/11/07 03:04:39;;;;;;;31.45;18.95;;;5.20;99.90;;;;;;5073211;28;20021;-90
2021/11/07 03:07:07;;;;;;;29.45;16.80;;;5.10;99.90;;;;;;5072979;28;20099;-90
2021/11/07 03:09:36;;;;;;;23.63;14.65;;;5.00;99.90;;;;;;5073082;28;20472;-90
2021/11/07 03:12:04;;;;;;;24.83;13.02;;;5.00;99.90;;;;;;5072991;28;20441;-89
2021/11/07 03:14:33;;;;;;;21.42;13.18;;;5.00;99.90;;;;;;5074244;28;20032;-90
2021/11/07 03:17:00;;;;;;;20.20;13.35;;;5.00;99.90;;;;;;5073192;28;20048;-90
2021/11/07 03:19:27;;;;;;;21.30;13.00;;;4.90;99.90;;;;;;5053768;28;20361;-90
2021/11/07 03:21:55;;;;;;;22.15;12.52;;;4.70;99.90;;;;;;5054252;28;20037;-90
2021/11/07 03:24:22;;;;;;;19.40;13.40;;;4.70;99.90;;;;;;5052690;28;20025;-89
2021/11/07 03:26:48;;;;;;;23.13;12.93;;;4.70;99.90;;;;;;5052899;28;20049;-90
2021/11/07 03:29:14;;;;;;;22.02;14.38;;;4.70;99.90;;;;;;5052754;28;20028;-89
2021/11/07 03:31:54;;;;;;;20.17;12.88;;;4.60;99.90;;;;;;5052992;28;20052;-89
2021/11/07 03:34:33;;;;;;;21.17;13.85;;;4.60;99.90;;;;;;5052874;28;20460;-89
2021/11/07 03:37:04;;;;;;;24.85;14.20;;;4.60;99.90;;;;;;5052929;28;20037;-88
2021/11/07 03:39:34;;;;;;;26.60;15.18;;;4.50;99.90;;;;;;5052755;28;20063;-89
2021/11/07 03:42:01;;;;;;;22.20;14.10;;;4.50;99.90;;;;;;5052333;28;20053;-89
2021/11/07 03:44:27;;;;;;;25.60;14.30;;;4.50;99.90;;;;;;5052569;28;20431;-90
2021/11/07 03:46:55;;;;;;;26.15;15.32;;;4.40;99.90;;;;;;5052793;28;20029;-89
2021/11/07 03:49:22;;;;;;;26.15;15.80;;;4.30;99.90;;;;;;5052683;28;20075;-89
2021/11/07 03:51:48;;;;;;;29.85;15.13;;;4.20;99.90;;;;;;5052931;28;20049;-89
2021/11/07 03:54:15;;;;;;;24.15;14.73;;;4.20;99.90;;;;;;5052804;28;20063;-89
2021/11/07 03:56:41;;;;;;;21.88;14.45;;;4.20;99.90;;;;;;5053742;28;20025;-88
2021/11/07 03:59:07;;;;;;;24.38;14.30;;;4.20;99.90;;;;;;5052384;28;20036;-89
2021/11/07 04:01:36;;;;;;;21.67;13.77;;;4.30;99.90;;;;;;5052605;28;20074;-89
2021/11/07 04:04:02;;;;;;;22.38;13.60;;;4.20;99.90;;;;;;5052742;28;20025;-89
2021/11/07 04:06:28;;;;;;;23.65;14.48;;;4.30;99.90;;;;;;5052504;28;20028;-89
2021/11/07 04:08:54;;;;;;;22.98;13.73;;;4.40;99.90;;;;;;5069036;28;20450;-89
2021/11/07 04:11:20;;;;;;;26.45;14.45;;;4.50;99.90;;;;;;5052919;28;20017;-89
2021/11/07 04:13:47;;;;;;;22.05;13.35;;;4.60;99.90;;;;;;5052312;28;20372;-89
2021/11/07 04:16:15;;;;;;;22.58;13.75;;;4.60;99.90;;;;;;5052191;28;20091;-89
2021/11/07 04:18:43;;;;;;;21.85;13.75;;;4.70;99.90;;;;;;5072360;28;20060;-89
2021/11/07 04:21:08;;;;;;;21.63;14.68;;;4.70;99.90;;;;;;5072317;28;20017;-89
2021/11/07 04:23:35;;;;;;;22.75;13.75;;;4.70;99.90;;;;;;5088800;28;20067;-89
2021/11/07 04:26:01;;;;;;;21.08;13.35;;;4.80;99.90;;;;;;5072636;28;20448;-89
2021/11/07 04:28:27;;;;;;;21.75;14.00;;;4.80;99.90;;;;;;5072291;28;20020;-90
2021/11/07 04:30:54;;;;;;;24.10;14.68;;;4.80;99.90;;;;;;5055746;28;20033;-90
2021/11/07 04:33:20;;;;;;;22.98;15.07;;;4.80;99.90;;;;;;5070832;28;20024;-90
2021/11/07 04:35:46;;;;;;;29.67;16.83;;;4.80;99.90;;;;;;5072899;28;20073;-90
2021/11/07 04:38:12;;;;;;;35.38;16.30;;;4.70;99.90;;;;;;5070975;28;20107;-90
2021/11/07 04:40:38;;;;;;;26.02;15.88;;;4.70;99.90;;;;;;5071310;28;20127;-90
2021/11/07 04:43:03;;;;;;;20.70;14.13;;;4.80;99.90;;;;;;5070636;28;20135;-90
2021/11/07 04:45:29;;;;;;;24.08;13.57;;;4.80;99.90;;;;;;5071116;28;20048;-90
2021/11/07 04:47:55;;;;;;;20.92;13.52;;;4.80;99.90;;;;;;5071469;28;20025;-90
2021/11/07 04:50:21;;;;;;;22.77;15.40;;;4.80;99.90;;;;;;5073923;28;20024;-93
2021/11/07 04:52:47;;;;;;;28.92;15.55;;;4.80;99.90;;;;;;5075349;28;20024;-92
2021/11/07 04:55:14;;;;;;;28.60;16.30;;;4.80;99.90;;;;;;5076349;28;20055;-93
2021/11/07 04:57:43;;;;;;;30.67;15.10;;;4.80;99.90;;;;;;5058381;28;20087;-92
2021/11/07 05:00:16;;;;;;;30.92;15.68;;;4.80;99.90;;;;;;5055602;28;20094;-93
2021/11/07 05:02:42;;;;;;;33.03;16.70;;;4.80;99.90;;;;;;5055466;28;20091;-93
2021/11/07 05:05:09;;;;;;;30.48;17.05;;;4.70;99.90;;;;;;5056670;28;20484;-92
2021/11/07 05:07:35;;;;;;;27.27;16.02;;;4.60;99.90;;;;;;5038655;28;20025;-92
2021/11/07 05:10:01;;;;;;;31.25;17.02;;;4.60;99.90;;;;;;5055010;28;20029;-91
2021/11/07 05:12:28;;;;;;;26.50;15.57;;;4.60;99.90;;;;;;5054789;28;20434;-91
2021/11/07 05:14:55;;;;;;;25.75;15.73;;;4.60;99.90;;;;;;5056023;28;20028;-91
2021/11/07 05:17:21;;;;;;;24.83;16.17;;;4.60;99.90;;;;;;5056602;28;20100;-91
2021/11/07 05:19:47;;;;;;;23.73;15.98;;;4.60;99.90;;;;;;5054781;28;20053;-91
2021/11/07 05:22:13;;;;;;;23.85;15.40;;;4.60;99.90;;;;;;5055075;28;20059;-91
2021/11/07 05:24:38;;;;;;;24.83;16.77;;;4.60;99.90;;;;;;5055088;28;20021;-90
2021/11/07 05:27:04;;;;;;;25.25;16.98;;;4.60;99.90;;;;;;5054677;28;20063;-91
2021/11/07 05:29:30;;;;;;;25.75;15.35;;;4.60;99.90;;;;;;5054389;28;20068;-85
2021/11/07 05:31:57;;;;;;;31.20;15.75;;;4.70;99.90;;;;;;5053653;28;20139;-85
2021/11/07 05:34:23;;;;;;;24.60;15.57;;;4.70;99.90;;;;;;5054334;28;20091;-85
2021/11/07 05:36:51;;;;;;;25.05;16.13;;;4.80;99.90;;;;;;5054092;28;20502;-85
2021/11/07 05:39:17;;;;;;;25.23;15.27;;;4.80;99.90;;;;;;5054403;28;20082;-85
2021/11/07 05:41:43;;;;;;;26.77;15.25;;;4.80;99.90;;;;;;5055189;28;20110;-85
2021/11/07 05:44:08;;;;;;;27.05;16.63;;;4.90;99.90;;;;;;5054464;28;20349;-85
2021/11/07 05:46:34;;;;;;;29.38;17.75;;;4.80;99.90;;;;;;5037477;28;20027;-85
2021/11/07 05:49:00;;;;;;;27.75;18.15;;;4.80;99.90;;;;;;5053192;28;20036;-85
2021/11/07 05:51:26;;;;;;;35.53;18.77;;;4.90;99.90;;;;;;5054364;28;20029;-85
2021/11/07 05:53:52;;;;;;;32.90;19.08;;;4.80;99.90;;;;;;5054031;28;20135;-85
2021/11/07 05:56:17;;;;;;;32.20;19.45;;;4.70;99.90;;;;;;5053493;28;20052;-85
2021/11/07 05:58:43;;;;;;;33.92;19.73;;;4.70;99.90;;;;;;5053854;28;20052;-85
2021/11/07 06:01:09;;;;;;;32.20;18.88;;;4.80;99.90;;;;;;5072556;28;20086;-85
2021/11/07 06:03:35;;;;;;;28.77;18.48;;;4.80;99.90;;;;;;5062691;28;20079;-84
2021/11/07 06:06:02;;;;;;;33.92;19.42;;;4.80;99.90;;;;;;5054709;28;20036;-85
2021/11/07 06:08:28;;;;;;;29.90;19.10;;;4.90;99.90;;;;;;5059703;28;20460;-85
2021/11/07 06:10:54;;;;;;;30.52;19.35;;;4.80;99.90;;;;;;5076746;28;20157;-85
2021/11/07 06:13:20;;;;;;;25.55;17.50;;;4.80;99.90;;;;;;5095319;28;20061;-85
2021/11/07 06:15:45;;;;;;;27.23;18.63;;;4.80;99.90;;;;;;5061991;28;20025;-83
2021/11/07 06:18:11;;;;;;;30.30;18.88;;;4.80;99.90;;;;;;5074637;28;20029;-83
2021/11/07 06:20:37;;;;;;;33.78;19.75;;;4.80;99.90;;;;;;5073355;28;20063;-82
2021/11/07 06:23:05;;;;;;;32.22;19.88;;;4.80;99.90;;;;;;5072895;28;20039;-84
2021/11/07 06:25:31;;;;;;;35.25;22.45;;;4.80;99.90;;;;;;5072860;28;20021;-84
2021/11/07 06:27:57;;;;;;;36.30;24.70;;;4.80;99.90;;;;;;5072307;28;20028;-83
2021/11/07 06:30:26;;;;;;;55.15;33.38;;;4.80;99.90;;;;;;5074374;28;20471;-83
2021/11/07 06:32:52;;;;;;;35.45;20.60;;;4.80;99.90;;;;;;5056675;28;20028;-82
2021/11/07 06:35:17;;;;;;;32.60;19.65;;;4.80;99.90;;;;;;5068740;28;20025;-82
2021/11/07 06:37:43;;;;;;;34.10;21.75;;;4.80;99.90;;;;;;5054382;28;20029;-82
2021/11/07 06:40:11;;;;;;;31.98;19.90;;;4.90;99.90;;;;;;5053491;28;20029;-87
2021/11/07 06:42:38;;;;;;;29.08;18.45;;;4.90;99.90;;;;;;5052848;28;20141;-84
2021/11/07 06:45:04;;;;;;;26.58;17.02;;;5.00;99.90;;;;;;5052589;28;20025;-79
2021/11/07 06:47:30;;;;;;;37.85;22.55;;;5.20;99.90;;;;;;5051963;28;20025;-78
2021/11/07 06:49:56;;;;;;;27.20;17.95;;;5.10;99.90;;;;;;5053777;28;20025;-78
2021/11/07 06:52:21;;;;;;;33.55;22.73;;;5.30;99.90;;;;;;5052738;28;20029;-79
2021/11/07 06:54:48;;;;;;;32.75;20.58;;;5.30;99.90;;;;;;5052639;28;20501;-81
2021/11/07 09:03:30;;;;;;;23.20;14.40;;;8.00;99.90;;;;;;5069483;28;20810;-83
2021/11/07 09:05:28;;;;;;;83.55;34.75;;;8.00;99.90;;;;;;5049557;28;20028;-82
2021/11/07 09:10:34;;;;;;;31.80;18.88;;;8.30;99.90;;;;;;5050749;28;20040;-82
2021/11/07 09:13:01;;;;;;;102.88;33.92;;;8.30;99.90;;;;;;5050516;28;20025;-85
2021/11/07 09:15:29;;;;;;;115.97;42.70;;;8.40;99.90;;;;;;5056061;28;20025;-88
2021/11/07 09:17:55;;;;;;;90.13;34.75;;;8.40;99.90;;;;;;5069529;28;20067;-83
2021/11/07 09:20:28;;;;;;;26.17;16.52;;;8.40;99.90;;;;;;5053021;28;20035;-82
2021/11/07 09:22:59;;;;;;;25.60;16.23;;;8.50;99.90;;;;;;5049369;28;20025;-83
2021/11/07 09:25:31;;;;;;;26.63;16.15;;;8.60;99.90;;;;;;5049306;28;20022;-85
2021/11/07 09:28:05;;;;;;;23.92;15.15;;;8.60;99.90;;;;;;5049192;28;20017;-82
2021/11/07 09:30:44;;;;;;;21.77;15.82;;;8.60;99.90;;;;;;5049278;28;20392;-86
2021/11/07 09:38:31;;;;;;;26.70;16.83;;;8.80;99.90;;;;;;5048706;28;20059;-83
2021/11/07 09:49:31;;;;;;;22.95;14.43;;;9.20;99.90;;;;;;5028255;28;20026;-83
2021/11/07 09:52:02;;;;;;;;;;;9.30;99.90;;;;;;5028519;28;20053;-81
2021/11/07 09:54:30;;;;;;;21.33;14.45;;;9.30;99.90;;;;;;5019579;28;19906;-78
2021/11/07 09:56:57;;;;;;;29.13;18.85;;;9.40;99.90;;;;;;5044116;28;20388;-78
2021/11/07 09:59:25;;;;;;;82.38;50.92;;;9.50;99.90;;;;;;5049609;28;20026;-78
2021/11/07 10:01:57;;;;;;;24.63;16.30;;;9.50;99.90;;;;;;5049409;28;20045;-79
2021/11/07 10:04:23;;;;;;;22.67;16.35;;;9.60;99.90;;;;;;5049173;28;20025;-78
2021/11/07 10:06:54;;;;;;;27.77;17.23;;;9.60;99.90;;;;;;5049232;28;20028;-78
2021/11/07 10:09:32;;;;;;;28.77;18.70;;;9.70;99.90;;;;;;5048553;28;20552;-79
2021/11/07 10:12:19;;;;;;;42.60;23.60;;;9.70;99.90;;;;;;5047133;28;20075;-78
2021/11/07 10:14:51;;;;;;;28.50;16.48;;;9.70;99.90;;;;;;5035733;28;20121;-78
2021/11/07 10:17:46;;;;;;;24.38;14.57;;;9.80;99.90;;;;;;5036071;28;20021;-79
2021/11/07 10:20:25;;;;;;;19.23;11.80;;;9.80;99.90;;;;;;5035636;28;20029;-80
2021/11/07 10:23:15;;;;;;;23.17;13.90;;;9.80;99.90;;;;;;5035249;28;20033;-78
2021/11/07 10:25:58;;;;;;;20.33;13.10;;;9.90;99.90;;;;;;5035720;28;20017;-78
2021/11/07 10:29:11;;;;;;;16.33;11.10;;;9.90;99.90;;;;;;5035609;28;20250;-79
2021/11/07 10:31:28;;;;;;;18.38;11.40;;;9.90;99.90;;;;;;5034878;28;20481;-77
2021/11/07 10:45:45;;;;;;;16.33;11.38;;;9.90;99.90;;;;;;5035250;28;20064;-79
2021/11/07 10:53:46;;;;;;;10.43;6.93;;;10.10;99.80;;;;;;5035873;28;20146;-78
2021/11/07 10:56:12;;;;;;;10.27;6.82;;;10.20;98.50;;;;;;5035391;28;20037;-79
2021/11/07 10:58:40;;;;;;;11.23;6.85;;;10.20;99.40;;;;;;5035388;28;20427;-78
2021/11/07 11:01:10;;;;;;;11.45;7.15;;;10.20;99.20;;;;;;5035261;28;20092;-78
2021/11/07 11:03:44;;;;;;;12.07;7.80;;;10.20;99.00;;;;;;5035038;28;20036;-77
2021/11/07 11:06:14;;;;;;;12.68;8.65;;;10.30;98.00;;;;;;5035272;28;20028;-77
2021/11/07 11:08:57;;;;;;;13.50;8.20;;;10.30;98.40;;;;;;5035244;28;20022;-78
2021/11/07 11:14:22;;;;;;;12.38;9.27;;;10.30;98.90;;;;;;5035413;28;20032;-78
2021/11/07 11:17:26;;;;;;;16.13;9.40;;;10.20;98.40;;;;;;5034963;28;20089;-77
2021/11/07 11:20:20;;;;;;;16.50;9.30;;;10.20;98.50;;;;;;5035079;28;20028;-77
2021/11/07 11:25:37;;;;;;;16.58;9.02;;;10.10;99.00;;;;;;5034182;28;20029;-78
2021/11/07 11:28:49;;;;;;;11.27;8.10;;;10.10;99.10;;;;;;5033607;28;20022;-79
2021/11/07 11:33:53;;;;;;;13.55;8.00;;;10.20;99.40;;;;;;5034220;28;20037;-78
2021/11/07 11:38:53;;;;;;;13.07;7.38;;;10.20;99.20;;;;;;5034682;28;20112;-77
2021/11/07 11:41:27;;;;;;;10.32;6.85;;;10.30;98.80;;;;;;5034332;28;20499;-80
2021/11/07 11:43:54;;;;;;;48.17;22.77;;;10.30;98.70;;;;;;5033509;28;20127;-79
2021/11/07 11:46:31;;;;;;;40.20;24.15;;;10.30;99.10;;;;;;5034566;28;20024;-82
2021/11/07 11:57:39;;;;;;;12.38;6.88;;;10.40;98.30;;;;;;5034288;28;20075;-78
2021/11/07 12:00:58;;;;;;;11.27;6.07;;;10.40;97.90;;;;;;5034012;28;20441;-78
2021/11/07 12:03:03;;;;;;;9.48;6.68;;;10.40;98.30;;;;;;5033719;28;20053;-78
2021/11/07 12:08:14;;;;;;;12.48;7.78;;;10.30;98.10;;;;;;5034912;28;20034;-79
2021/11/07 12:10:45;;;;;;;11.57;8.40;;;10.30;98.10;;;;;;5034227;28;20166;-81
2021/11/07 12:13:37;;;;;;;13.07;8.73;;;10.30;98.40;;;;;;5033177;28;20029;-79
2021/11/07 12:16:11;;;;;;;11.13;7.40;;;10.30;98.10;;;;;;5032524;28;20029;-79
2021/11/07 12:19:03;;;;;;;10.55;7.68;;;10.30;97.80;;;;;;5032749;28;20029;-79
2021/11/07 12:21:47;;;;;;;13.10;8.38;;;10.20;98.50;;;;;;5033890;28;20024;-81
2021/11/07 12:24:14;;;;;;;11.55;7.60;;;10.20;98.30;;;;;;5033939;28;20021;-82
2021/11/07 12:26:39;;;;;;;12.95;8.05;;;10.10;97.80;;;;;;5032650;28;20079;-80
2021/11/07 12:29:05;;;;;;;14.02;8.93;;;10.10;98.60;;;;;;5033945;28;20423;-81
2021/11/07 12:31:32;;;;;;;13.75;8.70;;;10.00;98.20;;;;;;5033826;28;20403;-80
2021/11/07 12:34:20;;;;;;;15.13;8.65;;;10.00;98.40;;;;;;5033680;28;20021;-88
2021/11/07 12:42:21;;;;;;;16.88;9.95;;;10.10;99.20;;;;;;5034003;28;20513;-80
2021/11/07 12:44:51;;;;;;;15.75;10.15;;;10.10;99.50;;;;;;5033704;28;20022;-81
2021/11/07 12:47:23;;;;;;;24.03;11.20;;;10.10;99.40;;;;;;5034036;28;20091;-78
2021/11/07 12:50:15;;;;;;;16.90;10.68;;;10.10;99.50;;;;;;5033956;28;20059;-78
2021/11/07 12:52:52;;;;;;;25.20;14.68;;;10.10;99.70;;;;;;5033069;28;20067;-78
2021/11/07 12:55:26;;;;;;;21.23;13.02;;;10.10;99.30;;;;;;5014142;28;20376;-79
2021/11/07 12:57:53;;;;;;;18.55;11.27;;;10.10;99.40;;;;;;5014107;28;20484;-80
2021/11/07 13:00:19;;;;;;;107.75;48.78;;;10.00;99.40;;;;;;5013487;28;20413;-80
2021/11/07 13:02:44;;;;;;;86.63;52.88;;;10.00;99.50;;;;;;5012526;28;20125;-80
2021/11/07 13:05:27;;;;;;;21.42;12.60;;;10.00;99.50;;;;;;5012557;28;20064;-79
2021/11/07 13:13:35;;;;;;;18.23;11.43;;;9.80;99.50;;;;;;5033384;28;20018;-83
2021/11/07 13:16:24;;;;;;;15.63;10.85;;;9.70;99.80;;;;;;5033015;28;20030;-85
2021/11/07 13:24:32;;;;;;;13.40;9.15;;;9.60;99.90;;;;;;5011146;28;20026;-80
2021/11/07 13:27:13;;;;;;;17.58;10.82;;;9.60;99.90;;;;;;5023458;28;20109;-81
2021/11/07 13:32:36;;;;;;;19.70;12.02;;;9.60;99.90;;;;;;5033341;28;20053;-78
2021/11/07 13:35:07;;;;;;;16.45;11.82;;;9.70;99.90;;;;;;5033514;28;20022;-77
2021/11/07 13:37:46;;;;;;;18.27;11.82;;;9.60;99.90;;;;;;5033212;28;20048;-77
2021/11/07 13:40:22;;;;;;;20.67;11.80;;;9.60;99.90;;;;;;5032229;28;20029;-78
2021/11/07 13:42:49;;;;;;;18.08;11.95;;;9.60;99.90;;;;;;5031833;28;20041;-77
2021/11/07 13:45:29;;;;;;;21.35;12.43;;;9.60;99.90;;;;;;5033081;28;20022;-77
2021/11/07 13:47:58;;;;;;;18.48;11.15;;;9.60;99.90;;;;;;5034517;28;20017;-78
2021/11/07 13:50:34;;;;;;;19.15;12.02;;;9.60;99.90;;;;;;5036529;28;20116;-78
2021/11/07 13:53:02;;;;;;;18.30;11.85;;;9.50;99.90;;;;;;5035760;28;20018;-77
2021/11/07 13:55:35;;;;;;;21.88;12.77;;;9.50;99.90;;;;;;5036770;28;20415;-77
2021/11/07 13:58:16;;;;;;;20.00;12.43;;;9.40;99.90;;;;;;5036857;28;20022;-77
2021/11/07 14:00:45;;;;;;;21.77;11.88;;;9.40;99.90;;;;;;5036338;28;20440;-77
2021/11/07 14:03:13;;;;;;;18.73;12.73;;;9.40;99.90;;;;;;5037099;28;20372;-78
2021/11/07 14:06:18;;;;;;;20.33;11.68;;;9.30;99.90;;;;;;5036645;28;20026;-79
2021/11/07 14:08:56;;;;;;;18.50;11.25;;;9.40;99.90;;;;;;5036210;28;20029;-77
2021/11/07 14:11:22;;;;;;;22.88;12.57;;;9.30;99.90;;;;;;5036075;28;20116;-80
2021/11/07 14:13:52;;;;;;;20.23;12.70;;;9.20;99.90;;;;;;5035373;28;20468;-80
2021/11/07 14:16:38;;;;;;;19.90;12.75;;;9.20;99.90;;;;;;5036235;28;20041;-80
2021/11/07 14:19:07;;;;;;;19.85;12.02;;;9.20;99.90;;;;;;5036585;28;20021;-80
2021/11/07 14:21:37;;;;;;;19.33;11.45;;;9.20;99.90;;;;;;5036336;28;20464;-80
2021/11/07 14:24:14;;;;;;;22.52;13.40;;;9.20;99.90;;;;;;5036242;28;20491;-81
2021/11/07 14:26:49;;;;;;;27.23;16.23;;;9.20;99.90;;;;;;5034908;28;20045;-81
2021/11/07 14:32:02;;;;;;;25.95;14.65;;;9.20;99.90;;;;;;5036086;28;20029;-81
2021/11/07 14:50:48;;;;;;;26.92;15.10;;;9.10;99.90;;;;;;5035162;28;20022;-80
2021/11/07 14:53:38;;;;;;;26.50;14.98;;;9.10;99.90;;;;;;5034415;28;20033;-80
2021/11/07 15:01:32;;;;;;;32.83;19.00;;;9.10;99.90;;;;;;5035448;28;20440;-80
2021/11/07 15:04:05;;;;;;;41.25;23.10;;;9.10;99.90;;;;;;5035549;28;20503;-79
2021/11/07 15:09:02;;;;;;;30.40;18.23;;;9.10;99.90;;;;;;5035727;28;20028;-83
2021/11/07 15:11:39;;;;;;;26.02;15.73;;;9.10;99.90;;;;;;5033902;28;20038;-84
2021/11/07 15:14:31;;;;;;;28.20;16.58;;;9.10;99.90;;;;;;5035123;28;20037;-83
2021/11/07 15:17:19;;;;;;;31.60;17.50;;;9.10;99.90;;;;;;5034851;28;20380;-82
2021/11/07 15:20:04;;;;;;;114.43;57.45;;;9.20;99.90;;;;;;5035264;28;20031;-81
2021/11/07 15:22:47;;;;;;;40.88;23.52;;;9.20;99.90;;;;;;5033137;28;20037;-82
2021/11/07 15:25:14;;;;;;;34.45;19.17;;;9.10;99.90;;;;;;5033896;28;20468;-86
2021/11/07 15:27:40;;;;;;;34.55;19.17;;;9.10;99.90;;;;;;5033572;28;20026;-80
2021/11/07 15:30:15;;;;;;;34.22;20.45;;;9.20;99.90;;;;;;5032565;28;20030;-80
2021/11/07 15:32:43;;;;;;;35.53;20.90;;;9.20;99.90;;;;;;5034040;28;20233;-80
2021/11/07 15:35:29;;;;;;;37.47;22.65;;;9.20;99.90;;;;;;5033831;28;20365;-80
2021/11/07 15:37:55;;;;;;;48.00;25.27;;;9.20;99.90;;;;;;5032635;28;20021;-80
2021/11/07 15:40:32;;;;;;;43.40;22.30;;;9.20;99.90;;;;;;5033878;28;20048;-80
2021/11/07 15:42:58;;;;;;;34.78;19.83;;;9.20;99.90;;;;;;5032595;28;20032;-80
2021/11/07 15:45:26;;;;;;;33.95;20.17;;;9.20;99.90;;;;;;5032887;28;20352;-81
2021/11/07 15:47:55;;;;;;;29.40;18.85;;;9.20;99.90;;;;;;5034273;28;20052;-80
2021/11/07 15:50:34;;;;;;;28.33;18.25;;;9.10;99.90;;;;;;5034340;28;20395;-81
2021/11/07 15:53:19;;;;;;;30.27;18.23;;;9.10;99.90;;;;;;5034361;28;20053;-80
2021/11/07 15:55:52;;;;;;;29.88;17.98;;;9.10;99.90;;;;;;5033025;28;20021;-81
2021/11/07 16:18:35;;;;;;;35.60;23.45;;;9.00;99.90;;;;;;5034193;28;20031;-81
2021/11/07 16:21:01;;;;;;;41.58;23.75;;;9.00;99.90;;;;;;5033886;28;20028;-81
2021/11/07 16:23:27;;;;;;;38.88;24.60;;;9.00;99.90;;;;;;5033713;28;20021;-81
2021/11/07 16:25:53;;;;;;;92.10;48.75;;;8.90;99.90;;;;;;5032671;28;20025;-81
2021/11/07 16:28:19;;;;;;;55.03;33.80;;;8.90;99.90;;;;;;5033694;28;20075;-80
2021/11/07 16:30:45;;;;;;;49.75;31.42;;;8.80;99.90;;;;;;5033954;28;20021;-80
2021/11/07 16:33:17;;;;;;;43.03;28.40;;;8.80;99.90;;;;;;5033790;28;20468;-80
2021/11/07 16:36:31;;;;;;;47.75;29.88;;;8.80;99.90;;;;;;5033927;28;20017;-80
2021/11/07 16:42:19;;;;;;;37.67;23.40;;;8.90;99.90;;;;;;5033831;28;20036;-80
2021/11/07 16:44:13;;;;;;;30.52;20.42;;;8.90;99.90;;;;;;5032965;28;20057;-80
2021/11/07 16:47:04;;;;;;;27.13;18.77;;;8.90;99.90;;;;;;5033847;28;20025;-80
2021/11/07 16:49:29;;;;;;;25.80;17.60;;;9.00;99.90;;;;;;5033373;28;20025;-80
2021/11/07 16:52:01;;;;;;;35.90;20.15;;;9.00;99.90;;;;;;5032270;28;20076;-80
2021/11/07 16:54:33;;;;;;;32.13;18.70;;;9.00;99.90;;;;;;5033469;28;20030;-80
2021/11/07 16:56:59;;;;;;;33.65;20.48;;;9.00;99.90;;;;;;5033470;28;20637;-80
2021/11/07 17:02:03;;;;;;;37.08;24.95;;;8.90;99.90;;;;;;5032991;28;20514;-80
2021/11/07 17:04:39;;;;;;;39.35;24.45;;;8.90;99.90;;;;;;5033550;28;20502;-80
2021/11/07 17:10:00;;;;;;;37.75;24.08;;;8.80;99.90;;;;;;5033467;28;20068;-81
2021/11/07 17:12:30;;;;;;;27.33;19.92;;;8.80;99.90;;;;;;5032220;28;20025;-80
2021/11/07 17:17:31;;;;;;;30.38;20.70;;;8.70;99.90;;;;;;5033220;28;20464;-81
2021/11/07 17:20:09;;;;;;;26.23;18.88;;;8.70;99.90;;;;;;5032619;28;20036;-80
2021/11/07 17:22:47;;;;;;;30.73;20.63;;;8.70;99.90;;;;;;5033916;28;20017;-84
2021/11/07 17:25:33;;;;;;;26.55;18.25;;;8.50;99.90;;;;;;5037276;28;20026;-81
2021/11/07 17:30:35;;;;;;;28.95;19.65;;;8.60;99.90;;;;;;5037458;28;20112;-81
2021/11/07 17:35:33;;;;;;;32.63;20.63;;;8.60;99.90;;;;;;5037075;28;20048;-82
2021/11/07 17:56:49;;;;;;;30.60;21.05;;;8.20;99.90;;;;;;5037142;28;20463;-81
2021/11/07 17:59:17;;;;;;;33.08;22.10;;;8.20;99.90;;;;;;5036629;28;20049;-84
2021/11/07 18:01:45;;;;;;;31.90;22.38;;;8.10;99.90;;;;;;5035104;28;20045;-81
2021/11/07 18:04:11;;;;;;;30.52;19.75;;;8.10;99.90;;;;;;5036536;28;20495;-81
2021/11/07 18:06:43;;;;;;;30.73;21.55;;;8.00;99.90;;;;;;5035260;28;20075;-80
2021/11/07 18:09:13;;;;;;;24.88;17.38;;;8.00;99.90;;;;;;5036646;28;20030;-81
2021/11/07 18:11:42;;;;;;;21.25;16.15;;;8.10;99.90;;;;;;5036419;28;20026;-81